sensor_id;sensor_type;location;lat;lon;timestamp;pressure;altitude;pressure_sealevel;temperature;humidity
69535;BME280;56754;51.568;5.048;2023-04-10T00:00:43;102017.28;;;14.05;58.95
69535;BME280;56754;51.568;5.048;2023-04-10T00:03:08;102008.72;;;14.03;59.14
69535;BME280;56754;51.568;5.048;2023-04-10T00:05:33;102011.69;;;14.02;59.15
69535;BME280;56754;51.568;5.048;2023-04-10T00:07:59;102000.16;;;14.01;59.14
69535;BME280;56754;51.568;5.048;2023-04-10T00:10:24;102007.41;;;14.01;59.14
69535;BME280;56754;51.568;5.048;2023-04-10T00:12:49;101999.69;;;13.99;59.22
69535;BME280;56754;51.568;5.048;2023-04-10T00:15:14;102006.63;;;14.00;59.51
69535;BME280;56754;51.568;5.048;2023-04-10T00:17:40;101993.78;;;13.97;59.31
69535;BME280;56754;51.568;5.048;2023-04-10T00:20:06;101990.31;;;13.97;59.51
69535;BME280;56754;51.568;5.048;2023-04-10T00:22:31;101986.84;;;13.96;59.76
69535;BME280;56754;51.568;5.048;2023-04-10T00:24:56;101982.88;;;13.94;58.89
69535;BME280;56754;51.568;5.048;2023-04-10T00:27:23;101982.88;;;13.94;59.34
69535;BME280;56754;51.568;5.048;2023-04-10T00:29:48;101983.16;;;13.92;60.04
69535;BME280;56754;51.568;5.048;2023-04-10T00:32:14;101982.38;;;13.92;59.47
69535;BME280;56754;51.568;5.048;2023-04-10T00:34:39;101979.69;;;13.92;59.11
69535;BME280;56754;51.568;5.048;2023-04-10T00:37:04;101983.47;;;13.91;59.97
69535;BME280;56754;51.568;5.048;2023-04-10T00:39:29;101971.09;;;13.89;59.64
69535;BME280;56754;51.568;5.048;2023-04-10T00:41:55;101979.50;;;13.88;59.33
69535;BME280;56754;51.568;5.048;2023-04-10T00:44:21;101978.69;;;13.87;59.91
69535;BME280;56754;51.568;5.048;2023-04-10T00:46:47;101977.88;;;13.87;59.95
69535;BME280;56754;51.568;5.048;2023-04-10T00:49:12;101978.19;;;13.85;60.23
69535;BME280;56754;51.568;5.048;2023-04-10T00:51:38;101970.13;;;13.85;60.09
69535;BME280;56754;51.568;5.048;2023-04-10T00:54:03;101971.25;;;13.84;59.78
69535;BME280;56754;51.568;5.048;2023-04-10T00:56:29;101977.69;;;13.83;60.05
69535;BME280;56754;51.568;5.048;2023-04-10T00:58:55;101968.06;;;13.82;59.93
69535;BME280;56754;51.568;5.048;2023-04-10T01:01:20;101976.13;;;13.82;60.03
69535;BME280;56754;51.568;5.048;2023-04-10T01:03:45;101966.78;;;13.80;60.45
69535;BME280;56754;51.568;5.048;2023-04-10T01:06:25;101956.34;;;13.78;59.68
69535;BME280;56754;51.568;5.048;2023-04-10T01:11:47;101958.22;;;13.78;60.61
69535;BME280;56754;51.568;5.048;2023-04-10T01:16:52;101959.31;;;13.77;60.16
69535;BME280;56754;51.568;5.048;2023-04-10T01:22:09;101948.84;;;13.75;60.43
69535;BME280;56754;51.568;5.048;2023-04-10T01:25:01;101951.84;;;13.74;60.44
69535;BME280;56754;51.568;5.048;2023-04-10T01:27:49;101948.06;;;13.75;60.32
69535;BME280;56754;51.568;5.048;2023-04-10T01:30:20;101943.00;;;13.73;60.04
69535;BME280;56754;51.568;5.048;2023-04-10T01:32:48;101942.22;;;13.73;60.31
69535;BME280;56754;51.568;5.048;2023-04-10T01:35:15;101937.13;;;13.71;60.40
69535;BME280;56754;51.568;5.048;2023-04-10T01:37:41;101930.66;;;13.72;60.35
69535;BME280;56754;51.568;5.048;2023-04-10T01:40:13;101931.75;;;13.71;60.75
69535;BME280;56754;51.568;5.048;2023-04-10T01:42:43;101922.13;;;13.70;60.38
69535;BME280;56754;51.568;5.048;2023-04-10T01:45:16;101921.34;;;13.70;59.98
69535;BME280;56754;51.568;5.048;2023-04-10T01:47:42;101925.09;;;13.69;60.72
69535;BME280;56754;51.568;5.048;2023-04-10T01:50:08;101925.41;;;13.67;60.47
69535;BME280;56754;51.568;5.048;2023-04-10T01:52:34;101925.41;;;13.67;60.54
69535;BME280;56754;51.568;5.048;2023-04-10T01:55:01;101915.75;;;13.66;60.71
69535;BME280;56754;51.568;5.048;2023-04-10T01:57:28;101914.97;;;13.65;60.70
69535;BME280;56754;51.568;5.048;2023-04-10T01:59:54;101907.22;;;13.64;60.64
69535;BME280;56754;51.568;5.048;2023-04-10T02:02:19;101906.41;;;13.63;60.59
69535;BME280;56754;51.568;5.048;2023-04-10T02:04:44;101896.47;;;13.64;60.38
69535;BME280;56754;51.568;5.048;2023-04-10T02:08:22;101901.84;;;13.64;61.23
69535;BME280;56754;51.568;5.048;2023-04-10T02:10:28;101899.44;;;13.62;60.58
69535;BME280;56754;51.568;5.048;2023-04-10T02:12:59;101898.94;;;13.60;60.45
69535;BME280;56754;51.568;5.048;2023-04-10T02:15:26;101894.38;;;13.61;60.77
69535;BME280;56754;51.568;5.048;2023-04-10T02:17:55;101899.75;;;13.61;60.47
69535;BME280;56754;51.568;5.048;2023-04-10T02:20:22;101895.47;;;13.60;60.33
69535;BME280;56754;51.568;5.048;2023-04-10T02:22:48;101897.38;;;13.59;60.40
69535;BME280;56754;51.568;5.048;2023-04-10T02:25:15;101887.72;;;13.58;60.63
69535;BME280;56754;51.568;5.048;2023-04-10T02:27:40;101895.78;;;13.58;60.61
69535;BME280;56754;51.568;5.048;2023-04-10T02:30:06;101895.78;;;13.58;60.43
69535;BME280;56754;51.568;5.048;2023-04-10T02:32:32;101891.50;;;13.57;60.91
69535;BME280;56754;51.568;5.048;2023-04-10T02:34:57;101897.69;;;13.58;60.66
69535;BME280;56754;51.568;5.048;2023-04-10T02:37:23;101888.03;;;13.57;60.80
69535;BME280;56754;51.568;5.048;2023-04-10T02:39:48;101890.69;;;13.57;60.29
69535;BME280;56754;51.568;5.048;2023-04-10T02:42:14;101891.81;;;13.56;60.57
69535;BME280;56754;51.568;5.048;2023-04-10T02:44:39;101884.88;;;13.55;60.76
69535;BME280;56754;51.568;5.048;2023-04-10T02:47:05;101902.84;;;13.54;60.16
69535;BME280;56754;51.568;5.048;2023-04-10T02:49:30;101895.59;;;13.55;60.48
69535;BME280;56754;51.568;5.048;2023-04-10T02:51:56;101891.31;;;13.54;60.48
69535;BME280;56754;51.568;5.048;2023-04-10T02:54:21;101887.84;;;13.53;60.31
69535;BME280;56754;51.568;5.048;2023-04-10T02:56:47;101891.31;;;13.54;60.39
69535;BME280;56754;51.568;5.048;2023-04-10T02:59:12;101882.47;;;13.53;60.71
69535;BME280;56754;51.568;5.048;2023-04-10T03:01:37;101892.41;;;13.53;60.75
69535;BME280;56754;51.568;5.048;2023-04-10T03:04:03;101889.22;;;13.51;60.53
69535;BME280;56754;51.568;5.048;2023-04-10T03:06:28;101894.31;;;13.52;60.79
69535;BME280;56754;51.568;5.048;2023-04-10T03:08:53;101899.97;;;13.51;60.49
69535;BME280;56754;51.568;5.048;2023-04-10T03:11:19;101904.84;;;13.49;60.58
69535;BME280;56754;51.568;5.048;2023-04-10T03:13:45;101901.38;;;13.48;60.71
69535;BME280;56754;51.568;5.048;2023-04-10T03:16:10;101896.31;;;13.47;60.52
69535;BME280;56754;51.568;5.048;2023-04-10T03:18:35;101898.22;;;13.46;60.58
69535;BME280;56754;51.568;5.048;2023-04-10T03:21:01;101892.03;;;13.46;60.55
69535;BME280;56754;51.568;5.048;2023-04-10T03:23:26;101883.19;;;13.45;60.73
69535;BME280;56754;51.568;5.048;2023-04-10T03:25:51;101880.81;;;13.43;60.92
69535;BME280;56754;51.568;5.048;2023-04-10T03:28:17;101880.81;;;13.43;60.77
69535;BME280;56754;51.568;5.048;2023-04-10T03:30:42;101881.88;;;13.42;60.77
69535;BME280;56754;51.568;5.048;2023-04-10T03:33:07;101876.50;;;13.42;60.96
69535;BME280;56754;51.568;5.048;2023-04-10T03:35:33;101868.78;;;13.41;60.48
69535;BME280;56754;51.568;5.048;2023-04-10T03:37:58;101878.72;;;13.40;60.56
69535;BME280;56754;51.568;5.048;2023-04-10T03:40:23;101862.13;;;13.38;60.78
69535;BME280;56754;51.568;5.048;2023-04-10T03:42:49;101864.00;;;13.38;61.07
69535;BME280;56754;51.568;5.048;2023-04-10T03:45:14;101859.75;;;13.37;61.13
69535;BME280;56754;51.568;5.048;2023-04-10T03:47:39;101865.41;;;13.35;60.52
69535;BME280;56754;51.568;5.048;2023-04-10T03:50:05;101864.63;;;13.35;60.55
69535;BME280;56754;51.568;5.048;2023-04-10T03:52:30;101859.53;;;13.33;60.57
69535;BME280;56754;51.568;5.048;2023-04-10T03:54:55;101855.28;;;13.32;60.81
69535;BME280;56754;51.568;5.048;2023-04-10T03:57:21;101860.63;;;13.32;60.92
69535;BME280;56754;51.568;5.048;2023-04-10T03:59:47;101846.72;;;13.30;60.50
69535;BME280;56754;51.568;5.048;2023-04-10T04:02:12;101852.09;;;13.30;60.98
69535;BME280;56754;51.568;5.048;2023-04-10T04:04:38;101846.25;;;13.28;60.80
69535;BME280;56754;51.568;5.048;2023-04-10T04:07:04;101836.59;;;13.27;60.66
69535;BME280;56754;51.568;5.048;2023-04-10T04:09:29;101834.22;;;13.26;60.87
69535;BME280;56754;51.568;5.048;2023-04-10T04:11:54;101838.78;;;13.25;61.15
69535;BME280;56754;51.568;5.048;2023-04-10T04:14:19;101840.94;;;13.23;61.13
69535;BME280;56754;51.568;5.048;2023-04-10T04:16:45;101832.09;;;13.23;61.21
69535;BME280;56754;51.568;5.048;2023-04-10T04:19:10;101830.50;;;13.21;61.16
69535;BME280;56754;51.568;5.048;2023-04-10T04:21:36;101833.19;;;13.21;61.03
69535;BME280;56754;51.568;5.048;2023-04-10T04:24:01;101829.19;;;13.19;61.07
69535;BME280;56754;51.568;5.048;2023-04-10T04:26:26;101826.53;;;13.19;61.14
69535;BME280;56754;51.568;5.048;2023-04-10T04:28:51;101823.84;;;13.19;61.23
69535;BME280;56754;51.568;5.048;2023-04-10T04:31:17;101824.16;;;13.17;60.88
69535;BME280;56754;51.568;5.048;2023-04-10T04:33:42;101824.44;;;13.16;61.11
69535;BME280;56754;51.568;5.048;2023-04-10T04:36:07;101826.34;;;13.15;61.30
69535;BME280;56754;51.568;5.048;2023-04-10T04:38:33;101820.19;;;13.15;61.19
69535;BME280;56754;51.568;5.048;2023-04-10T04:40:58;101822.34;;;13.13;61.42
69535;BME280;56754;51.568;5.048;2023-04-10T04:43:23;101817.81;;;13.13;60.99
69535;BME280;56754;51.568;5.048;2023-04-10T04:45:49;101817.31;;;13.11;61.11
69535;BME280;56754;51.568;5.048;2023-04-10T04:48:14;101813.53;;;13.12;61.00
69535;BME280;56754;51.568;5.048;2023-04-10T04:50:39;101813.84;;;13.11;61.35
69535;BME280;56754;51.568;5.048;2023-04-10T04:53:05;101827.25;;;13.11;61.21
69535;BME280;56754;51.568;5.048;2023-04-10T04:55:30;101824.56;;;13.11;61.22
69535;BME280;56754;51.568;5.048;2023-04-10T04:57:55;101821.09;;;13.10;61.23
69535;BME280;56754;51.568;5.048;2023-04-10T05:00:20;101813.34;;;13.09;61.03
69535;BME280;56754;51.568;5.048;2023-04-10T05:02:46;101806.38;;;13.08;60.68
69535;BME280;56754;51.568;5.048;2023-04-10T05:05:11;101806.38;;;13.08;61.21
69535;BME280;56754;51.568;5.048;2023-04-10T05:07:36;101795.66;;;13.08;61.39
69535;BME280;56754;51.568;5.048;2023-04-10T05:10:02;101793.25;;;13.06;61.09
69535;BME280;56754;51.568;5.048;2023-04-10T05:12:27;101784.41;;;13.06;61.17
69535;BME280;56754;51.568;5.048;2023-04-10T05:14:52;101787.09;;;13.06;61.21
69535;BME280;56754;51.568;5.048;2023-04-10T05:17:18;101789.78;;;13.06;61.44
69535;BME280;56754;51.568;5.048;2023-04-10T05:19:43;101797.03;;;13.05;61.11
69535;BME280;56754;51.568;5.048;2023-04-10T05:22:08;101787.09;;;13.06;61.13
69535;BME280;56754;51.568;5.048;2023-04-10T05:24:33;101793.25;;;13.06;61.31
69535;BME280;56754;51.568;5.048;2023-04-10T05:26:59;101783.63;;;13.05;61.36
69535;BME280;56754;51.568;5.048;2023-04-10T05:29:24;101789.00;;;13.05;60.99
69535;BME280;56754;51.568;5.048;2023-04-10T05:31:49;101790.06;;;13.04;61.20
69535;BME280;56754;51.568;5.048;2023-04-10T05:34:15;101790.88;;;13.05;61.04
69535;BME280;56754;51.568;5.048;2023-04-10T05:36:40;101799.22;;;13.03;60.84
69535;BME280;56754;51.568;5.048;2023-04-10T05:39:05;101801.63;;;13.05;61.03
69535;BME280;56754;51.568;5.048;2023-04-10T05:41:30;101800.00;;;13.04;60.88
69535;BME280;56754;51.568;5.048;2023-04-10T05:43:56;101796.53;;;13.03;60.52
69535;BME280;56754;51.568;5.048;2023-04-10T05:46:21;101808.06;;;13.04;60.45
69535;BME280;56754;51.568;5.048;2023-04-10T05:48:46;101805.38;;;13.04;60.57
69535;BME280;56754;51.568;5.048;2023-04-10T05:51:12;101800.81;;;13.04;60.39
69535;BME280;56754;51.568;5.048;2023-04-10T05:53:37;101795.44;;;13.04;59.64
69535;BME280;56754;51.568;5.048;2023-04-10T05:56:02;101800.00;;;13.04;60.12
69535;BME280;56754;51.568;5.048;2023-04-10T05:58:28;101802.69;;;13.04;59.94
69535;BME280;56754;51.568;5.048;2023-04-10T06:00:53;101800.81;;;13.04;59.69
69535;BME280;56754;51.568;5.048;2023-04-10T06:03:19;101796.25;;;13.05;59.50
69535;BME280;56754;51.568;5.048;2023-04-10T06:05:45;101790.88;;;13.05;59.50
69535;BME280;56754;51.568;5.048;2023-04-10T06:08:10;101794.03;;;13.07;59.49
69535;BME280;56754;51.568;5.048;2023-04-10T06:10:35;101788.69;;;13.07;59.67
69535;BME280;56754;51.568;5.048;2023-04-10T06:13:01;101794.84;;;13.07;59.10
69535;BME280;56754;51.568;5.048;2023-04-10T06:15:26;101784.09;;;13.07;59.15
69535;BME280;56754;51.568;5.048;2023-04-10T06:17:51;101774.19;;;13.08;59.20
69535;BME280;56754;51.568;5.048;2023-04-10T06:20:17;101774.97;;;13.08;59.21
69535;BME280;56754;51.568;5.048;2023-04-10T06:22:42;101771.97;;;13.10;59.49
69535;BME280;56754;51.568;5.048;2023-04-10T06:25:08;101770.09;;;13.10;59.04
69535;BME280;56754;51.568;5.048;2023-04-10T06:27:33;101764.41;;;13.12;58.50
69535;BME280;56754;51.568;5.048;2023-04-10T06:29:59;101752.56;;;13.13;58.83
69535;BME280;56754;51.568;5.048;2023-04-10T06:32:24;101759.22;;;13.15;58.84
69535;BME280;56754;51.568;5.048;2023-04-10T06:34:50;101758.16;;;13.16;58.78
69535;BME280;56754;51.568;5.048;2023-04-10T06:37:15;101757.03;;;13.17;58.20
69535;BME280;56754;51.568;5.048;2023-04-10T06:39:40;101745.19;;;13.18;58.02
69535;BME280;56754;51.568;5.048;2023-04-10T06:42:06;101744.91;;;13.20;58.15
69535;BME280;56754;51.568;5.048;2023-04-10T06:44:31;101742.69;;;13.22;58.40
69535;BME280;56754;51.568;5.048;2023-04-10T06:46:56;101737.31;;;13.22;57.80
69535;BME280;56754;51.568;5.048;2023-04-10T06:49:22;101731.41;;;13.25;58.22
69535;BME280;56754;51.568;5.048;2023-04-10T06:51:47;101725.72;;;13.27;57.84
69535;BME280;56754;51.568;5.048;2023-04-10T06:54:13;101728.09;;;13.28;57.76
69535;BME280;56754;51.568;5.048;2023-04-10T06:56:38;101720.53;;;13.30;57.79
69535;BME280;56754;51.568;5.048;2023-04-10T06:59:03;101720.22;;;13.32;57.69
69535;BME280;56754;51.568;5.048;2023-04-10T07:01:29;101712.66;;;13.34;57.29
69535;BME280;56754;51.568;5.048;2023-04-10T07:03:54;101705.09;;;13.36;57.60
69535;BME280;56754;51.568;5.048;2023-04-10T07:06:19;101696.75;;;13.37;57.40
69535;BME280;56754;51.568;5.048;2023-04-10T07:08:45;101698.03;;;13.40;57.26
69535;BME280;56754;51.568;5.048;2023-04-10T07:11:10;101677.78;;;13.42;57.70
69535;BME280;56754;51.568;5.048;2023-04-10T07:13:35;101690.59;;;13.46;57.34
69535;BME280;56754;51.568;5.048;2023-04-10T07:16:01;101698.03;;;13.49;57.04
69535;BME280;56754;51.568;5.048;2023-04-10T07:18:26;101692.88;;;13.52;56.75
69535;BME280;56754;51.568;5.048;2023-04-10T07:20:51;101685.00;;;13.56;56.62
69535;BME280;56754;51.568;5.048;2023-04-10T07:23:16;101685.16;;;13.59;57.42
69535;BME280;56754;51.568;5.048;2023-04-10T07:25:42;101677.28;;;13.63;57.23
69535;BME280;56754;51.568;5.048;2023-04-10T07:28:07;101677.16;;;13.68;57.41
69535;BME280;56754;51.568;5.048;2023-04-10T07:30:32;101669.56;;;13.70;57.28
69535;BME280;56754;51.568;5.048;2023-04-10T07:32:58;101664.66;;;13.72;56.63
69535;BME280;56754;51.568;5.048;2023-04-10T07:35:23;101654.41;;;13.74;56.51
69535;BME280;56754;51.568;5.048;2023-04-10T07:37:50;101647.63;;;13.77;56.19
69535;BME280;56754;51.568;5.048;2023-04-10T07:40:15;101643.84;;;13.78;56.06
69535;BME280;56754;51.568;5.048;2023-04-10T07:42:41;101641.34;;;13.81;56.43
69535;BME280;56754;51.568;5.048;2023-04-10T07:45:06;101629.16;;;13.84;55.80
69535;BME280;56754;51.568;5.048;2023-04-10T07:47:32;101638.50;;;13.86;55.38
69535;BME280;56754;51.568;5.048;2023-04-10T07:49:57;101632.50;;;13.89;55.18
69535;BME280;56754;51.568;5.048;2023-04-10T07:52:23;101624.91;;;13.92;55.19
69535;BME280;56754;51.568;5.048;2023-04-10T07:54:48;101625.41;;;13.94;55.04
69535;BME280;56754;51.568;5.048;2023-04-10T07:57:14;101624.28;;;13.95;54.61
69535;BME280;56754;51.568;5.048;2023-04-10T07:59:39;101627.16;;;13.98;54.56
69535;BME280;56754;51.568;5.048;2023-04-10T08:02:05;101614.50;;;13.99;54.57
69535;BME280;56754;51.568;5.048;2023-04-10T08:04:30;101614.97;;;14.01;54.55
69535;BME280;56754;51.568;5.048;2023-04-10T08:06:55;101606.91;;;14.01;54.25
69535;BME280;56754;51.568;5.048;2023-04-10T08:09:21;101604.22;;;14.01;54.12
69535;BME280;56754;51.568;5.048;2023-04-10T08:11:46;101612.78;;;14.03;53.80
69535;BME280;56754;51.568;5.048;2023-04-10T08:14:12;101608.97;;;14.04;53.97
69535;BME280;56754;51.568;5.048;2023-04-10T08:16:37;101604.38;;;14.04;53.64
69535;BME280;56754;51.568;5.048;2023-04-10T08:19:02;101611.03;;;14.07;53.55
69535;BME280;56754;51.568;5.048;2023-04-10T08:21:29;101611.81;;;14.07;53.52
69535;BME280;56754;51.568;5.048;2023-04-10T08:23:59;101609.63;;;14.09;54.60
69535;BME280;56754;51.568;5.048;2023-04-10T08:26:25;101598.88;;;14.09;53.87
69535;BME280;56754;51.568;5.048;2023-04-10T08:28:54;101603.94;;;14.11;53.60
69535;BME280;56754;51.568;5.048;2023-04-10T08:31:21;101589.41;;;14.12;53.32
69535;BME280;56754;51.568;5.048;2023-04-10T08:33:46;101586.38;;;14.14;53.03
69535;BME280;56754;51.568;5.048;2023-04-10T08:36:12;101584.16;;;14.16;52.91
69535;BME280;56754;51.568;5.048;2023-04-10T08:38:38;101578.78;;;14.16;52.91
69535;BME280;56754;51.568;5.048;2023-04-10T08:41:05;101585.44;;;14.18;53.28
69535;BME280;56754;51.568;5.048;2023-04-10T08:43:30;101584.31;;;14.19;52.85
69535;BME280;56754;51.568;5.048;2023-04-10T08:45:57;101572.50;;;14.20;55.01
69535;BME280;56754;51.568;5.048;2023-04-10T08:48:28;101576.75;;;14.21;55.63
69535;BME280;56754;51.568;5.048;2023-04-10T08:50:59;101573.28;;;14.21;53.48
69535;BME280;56754;51.568;5.048;2023-04-10T08:53:27;101581.00;;;14.22;53.01
69535;BME280;56754;51.568;5.048;2023-04-10T08:55:55;101573.44;;;14.24;54.29
69535;BME280;56754;51.568;5.048;2023-04-10T08:58:20;101564.25;;;14.25;55.27
69535;BME280;56754;51.568;5.048;2023-04-10T09:00:45;101569.31;;;14.27;54.50
69535;BME280;56754;51.568;5.048;2023-04-10T09:03:11;101580.88;;;14.27;55.18
69535;BME280;56754;51.568;5.048;2023-04-10T09:05:37;101574.38;;;14.28;54.32
69535;BME280;56754;51.568;5.048;2023-04-10T09:08:03;101573.75;;;14.31;55.17
69535;BME280;56754;51.568;5.048;2023-04-10T09:10:29;101567.28;;;14.32;54.15
69535;BME280;56754;51.568;5.048;2023-04-10T09:12:54;101566.16;;;14.33;54.28
69535;BME280;56754;51.568;5.048;2023-04-10T09:15:22;101563.94;;;14.36;54.47
69535;BME280;56754;51.568;5.048;2023-04-10T09:18:01;101567.13;;;14.38;54.25
69535;BME280;56754;51.568;5.048;2023-04-10T09:20:29;101550.66;;;14.39;54.43
69535;BME280;56754;51.568;5.048;2023-04-10T09:22:54;101545.28;;;14.39;55.55
69535;BME280;56754;51.568;5.048;2023-04-10T09:28:02;101541.94;;;14.42;55.32
69535;BME280;56754;51.568;5.048;2023-04-10T09:30:36;101518.53;;;14.43;54.84
69535;BME280;56754;51.568;5.048;2023-04-10T09:33:10;101520.91;;;14.44;56.09
69535;BME280;56754;51.568;5.048;2023-04-10T09:35:44;101520.91;;;14.44;55.85
69535;BME280;56754;51.568;5.048;2023-04-10T09:38:17;101528.34;;;14.47;55.61
69535;BME280;56754;51.568;5.048;2023-04-10T09:40:44;101529.13;;;14.48;55.47
69535;BME280;56754;51.568;5.048;2023-04-10T09:43:16;101526.94;;;14.50;56.27
69535;BME280;56754;51.568;5.048;2023-04-10T09:45:49;101528.50;;;14.51;56.96
69535;BME280;56754;51.568;5.048;2023-04-10T09:48:15;101517.75;;;14.51;55.80
69535;BME280;56754;51.568;5.048;2023-04-10T09:50:41;101523.63;;;14.53;56.27
69535;BME280;56754;51.568;5.048;2023-04-10T09:53:10;101518.69;;;14.55;56.58
69535;BME280;56754;51.568;5.048;2023-04-10T09:55:36;101521.09;;;14.56;56.37
69535;BME280;56754;51.568;5.048;2023-04-10T09:58:03;101498.13;;;14.59;56.95
69535;BME280;56754;51.568;5.048;2023-04-10T10:00:29;101494.66;;;14.59;57.37
69535;BME280;56754;51.568;5.048;2023-04-10T10:02:56;101494.03;;;14.62;56.54
69535;BME280;56754;51.568;5.048;2023-04-10T10:05:23;101481.34;;;14.62;57.67
69535;BME280;56754;51.568;5.048;2023-04-10T10:07:49;101484.53;;;14.64;57.25
69535;BME280;56754;51.568;5.048;2023-04-10T10:10:14;101486.09;;;14.65;56.24
69535;BME280;56754;51.568;5.048;2023-04-10T10:12:46;101485.75;;;14.67;57.97
69535;BME280;56754;51.568;5.048;2023-04-10T10:15:22;101490.50;;;14.70;58.09
69535;BME280;56754;51.568;5.048;2023-04-10T10:20:27;101474.53;;;14.73;58.25
69535;BME280;56754;51.568;5.048;2023-04-10T10:22:53;101464.56;;;14.74;58.15
69535;BME280;56754;51.568;5.048;2023-04-10T10:25:18;101459.66;;;14.76;58.11
69535;BME280;56754;51.568;5.048;2023-04-10T10:27:45;101459.31;;;14.77;57.56
69535;BME280;56754;51.568;5.048;2023-04-10T10:30:13;101450.94;;;14.79;58.03
69535;BME280;56754;51.568;5.048;2023-04-10T10:32:41;101461.34;;;14.81;58.23
69535;BME280;56754;51.568;5.048;2023-04-10T10:35:07;101449.47;;;14.82;58.13
69535;BME280;56754;51.568;5.048;2023-04-10T10:37:33;101445.34;;;14.84;58.19
69535;BME280;56754;51.568;5.048;2023-04-10T10:40:11;101437.28;;;14.84;58.11
69535;BME280;56754;51.568;5.048;2023-04-10T10:45:32;101424.78;;;14.88;58.15
69535;BME280;56754;51.568;5.048;2023-04-10T10:47:58;101431.41;;;14.91;58.21
69535;BME280;56754;51.568;5.048;2023-04-10T10:50:24;101428.72;;;14.91;58.09
69535;BME280;56754;51.568;5.048;2023-04-10T10:52:50;101416.81;;;14.92;58.17
69535;BME280;56754;51.568;5.048;2023-04-10T11:00:17;101407.47;;;14.98;58.04
69535;BME280;56754;51.568;5.048;2023-04-10T11:02:43;101397.16;;;15.00;58.01
69535;BME280;56754;51.568;5.048;2023-04-10T11:05:08;101386.06;;;15.01;58.00
69535;BME280;56754;51.568;5.048;2023-04-10T11:13:27;101372.41;;;15.07;57.94
69535;BME280;56754;51.568;5.048;2023-04-10T11:15:55;101372.06;;;15.08;58.09
69535;BME280;56754;51.568;5.048;2023-04-10T11:21:12;101361.47;;;15.12;57.89
69535;BME280;56754;51.568;5.048;2023-04-10T11:23:38;101355.75;;;15.13;57.68
69535;BME280;56754;51.568;5.048;2023-04-10T11:26:41;101348.13;;;15.15;57.89
69535;BME280;56754;51.568;5.048;2023-04-10T11:31:42;101352.06;;;15.18;57.75
69535;BME280;56754;51.568;5.048;2023-04-10T11:34:09;101352.06;;;15.18;57.85
69535;BME280;56754;51.568;5.048;2023-04-10T11:36:39;101344.78;;;15.18;57.88
69535;BME280;56754;51.568;5.048;2023-04-10T11:39:07;101334.47;;;15.20;57.72
69535;BME280;56754;51.568;5.048;2023-04-10T11:41:34;101330.19;;;15.19;57.74
69535;BME280;56754;51.568;5.048;2023-04-10T11:44:03;101332.88;;;15.19;57.75
69535;BME280;56754;51.568;5.048;2023-04-10T11:46:30;101328.75;;;15.22;57.82
69535;BME280;56754;51.568;5.048;2023-04-10T11:48:59;101315.75;;;15.24;57.71
69535;BME280;56754;51.568;5.048;2023-04-10T11:51:25;101316.53;;;15.24;57.83
69535;BME280;56754;51.568;5.048;2023-04-10T11:54:03;101312.72;;;15.25;57.61
69535;BME280;56754;51.568;5.048;2023-04-10T11:56:29;101300.84;;;15.27;57.78
69535;BME280;56754;51.568;5.048;2023-04-10T11:58:54;101303.53;;;15.27;57.73
69535;BME280;56754;51.568;5.048;2023-04-10T12:01:20;101294.34;;;15.28;57.60
69535;BME280;56754;51.568;5.048;2023-04-10T12:03:46;101296.25;;;15.27;57.66
69535;BME280;56754;51.568;5.048;2023-04-10T12:06:13;101301.63;;;15.27;57.67
69535;BME280;56754;51.568;5.048;2023-04-10T12:08:40;101290.53;;;15.29;57.68
69535;BME280;56754;51.568;5.048;2023-04-10T12:11:08;101300.50;;;15.28;57.64
69535;BME280;56754;51.568;5.048;2023-04-10T12:13:34;101275.97;;;15.30;57.52
69535;BME280;56754;51.568;5.048;2023-04-10T12:16:03;101275.97;;;15.30;57.44
69535;BME280;56754;51.568;5.048;2023-04-10T12:18:29;101273.25;;;15.30;57.56
69535;BME280;56754;51.568;5.048;2023-04-10T12:20:55;101267.06;;;15.29;57.48
69535;BME280;56754;51.568;5.048;2023-04-10T12:23:22;101270.56;;;15.30;57.58
69535;BME280;56754;51.568;5.048;2023-04-10T12:25:47;101269.44;;;15.31;57.62
69535;BME280;56754;51.568;5.048;2023-04-10T12:28:18;101259.44;;;15.31;57.57
69535;BME280;56754;51.568;5.048;2023-04-10T12:30:50;101242.50;;;15.31;57.64
69535;BME280;56754;51.568;5.048;2023-04-10T12:33:23;101253.28;;;15.31;57.67
69535;BME280;56754;51.568;5.048;2023-04-10T12:35:49;101249.81;;;15.30;57.64
69535;BME280;56754;51.568;5.048;2023-04-10T12:38:15;101245.22;;;15.31;57.67
69535;BME280;56754;51.568;5.048;2023-04-10T12:40:59;101242.50;;;15.31;57.70
69535;BME280;56754;51.568;5.048;2023-04-10T12:43:43;101243.28;;;15.31;57.72
69535;BME280;56754;51.568;5.048;2023-04-10T12:46:09;101237.13;;;15.31;57.64
69535;BME280;56754;51.568;5.048;2023-04-10T12:48:35;101231.75;;;15.31;57.72
69535;BME280;56754;51.568;5.048;2023-04-10T12:51:01;101223.66;;;15.31;57.70
69535;BME280;56754;51.568;5.048;2023-04-10T12:53:27;101230.19;;;15.30;57.76
69535;BME280;56754;51.568;5.048;2023-04-10T12:55:57;101226.34;;;15.31;57.72
69535;BME280;56754;51.568;5.048;2023-04-10T12:58:23;101221.75;;;15.31;57.64
69535;BME280;56754;51.568;5.048;2023-04-10T13:00:48;101210.19;;;15.31;57.77
69535;BME280;56754;51.568;5.048;2023-04-10T13:03:14;101209.41;;;15.30;57.74
69535;BME280;56754;51.568;5.048;2023-04-10T13:05:39;101206.25;;;15.28;57.83
69535;BME280;56754;51.568;5.048;2023-04-10T13:08:04;101214.34;;;15.28;57.84
69535;BME280;56754;51.568;5.048;2023-04-10T13:10:30;101206.25;;;15.28;57.94
69535;BME280;56754;51.568;5.048;2023-04-10T13:12:55;101183.16;;;15.27;57.84
69535;BME280;56754;51.568;5.048;2023-04-10T13:15:20;101193.25;;;15.30;57.96
69535;BME280;56754;51.568;5.048;2023-04-10T13:17:46;101185.97;;;15.31;57.94
69535;BME280;56754;51.568;5.048;2023-04-10T13:20:11;101182.47;;;15.30;57.94